sensor_id;sensor_type;location;lat;lon;timestamp;temperature;humidity
22838;DHT22;11585;51.450;-0.240;2022-12-05T00:01:32;7.50;99.90
22838;DHT22;11585;51.450;-0.240;2022-12-05T00:06:47;7.40;99.90
22838;DHT22;11585;51.450;-0.240;2022-12-05T00:09:13;7.40;99.90
22838;DHT22;11585;51.450;-0.240;2022-12-05T00:11:40;7.70;99.90
22838;DHT22;11585;51.450;-0.240;2022-12-05T00:14:09;7.50;99.90
22838;DHT22;11585;51.450;-0.240;2022-12-05T00:16:38;7.40;99.90
22838;DHT22;11585;51.450;-0.240;2022-12-05T00:19:05;8.30;99.90
22838;DHT22;11585;51.450;-0.240;2022-12-05T00:21:32;7.50;99.90
22838;DHT22;11585;51.450;-0.240;2022-12-05T00:24:04;7.40;99.90
22838;DHT22;11585;51.450;-0.240;2022-12-05T00:26:34;7.50;99.90
22838;DHT22;11585;51.450;-0.240;2022-12-05T00:29:00;7.00;99.90
22838;DHT22;11585;51.450;-0.240;2022-12-05T00:31:27;7.40;99.90
22838;DHT22;11585;51.450;-0.240;2022-12-05T00:36:59;7.50;99.90
22838;DHT22;11585;51.450;-0.240;2022-12-05T00:39:25;7.40;99.90
22838;DHT22;11585;51.450;-0.240;2022-12-05T00:41:50;7.40;99.90
22838;DHT22;11585;51.450;-0.240;2022-12-05T00:44:18;7.70;99.90
22838;DHT22;11585;51.450;-0.240;2022-12-05T00:46:44;7.60;99.90
22838;DHT22;11585;51.450;-0.240;2022-12-05T00:49:12;8.60;99.90
22838;DHT22;11585;51.450;-0.240;2022-12-05T00:51:40;8.40;99.90
22838;DHT22;11585;51.450;-0.240;2022-12-05T00:54:12;7.40;99.90
22838;DHT22;11585;51.450;-0.240;2022-12-05T00:56:38;8.40;99.90
22838;DHT22;11585;51.450;-0.240;2022-12-05T00:59:05;7.90;99.90
22838;DHT22;11585;51.450;-0.240;2022-12-05T01:01:33;8.20;99.90
22838;DHT22;11585;51.450;-0.240;2022-12-05T01:04:05;7.50;99.90
22838;DHT22;11585;51.450;-0.240;2022-12-05T01:06:32;7.40;99.90
22838;DHT22;11585;51.450;-0.240;2022-12-05T01:08:58;7.40;99.90
22838;DHT22;11585;51.450;-0.240;2022-12-05T01:11:24;7.50;99.90
22838;DHT22;11585;51.450;-0.240;2022-12-05T01:13:50;7.70;99.90
22838;DHT22;11585;51.450;-0.240;2022-12-05T01:16:20;7.40;99.90
22838;DHT22;11585;51.450;-0.240;2022-12-05T01:18:46;7.80;99.90
22838;DHT22;11585;51.450;-0.240;2022-12-05T01:21:12;7.50;99.90
22838;DHT22;11585;51.450;-0.240;2022-12-05T01:23:39;7.40;99.90
22838;DHT22;11585;51.450;-0.240;2022-12-05T01:26:11;7.40;99.90
22838;DHT22;11585;51.450;-0.240;2022-12-05T01:28:38;7.40;99.90
22838;DHT22;11585;51.450;-0.240;2022-12-05T01:31:06;7.50;99.90
22838;DHT22;11585;51.450;-0.240;2022-12-05T01:33:33;7.40;99.90
22838;DHT22;11585;51.450;-0.240;2022-12-05T01:35:59;7.40;99.90
22838;DHT22;11585;51.450;-0.240;2022-12-05T01:38:25;7.50;99.90
22838;DHT22;11585;51.450;-0.240;2022-12-05T01:40:59;7.40;99.90
22838;DHT22;11585;51.450;-0.240;2022-12-05T01:44:04;7.50;99.90
22838;DHT22;11585;51.450;-0.240;2022-12-05T01:46:33;7.70;99.90
22838;DHT22;11585;51.450;-0.240;2022-12-05T01:49:30;7.40;99.90
22838;DHT22;11585;51.450;-0.240;2022-12-05T01:52:07;7.40;99.90
22838;DHT22;11585;51.450;-0.240;2022-12-05T01:57:56;7.50;99.90
22838;DHT22;11585;51.450;-0.240;2022-12-05T02:00:22;7.40;99.90
22838;DHT22;11585;51.450;-0.240;2022-12-05T02:02:55;7.50;99.90
22838;DHT22;11585;51.450;-0.240;2022-12-05T02:08:10;7.40;99.90
22838;DHT22;11585;51.450;-0.240;2022-12-05T02:10:47;7.40;99.90
22838;DHT22;11585;51.450;-0.240;2022-12-05T02:25:40;7.50;99.90
22838;DHT22;11585;51.450;-0.240;2022-12-05T02:31:21;7.50;99.90
22838;DHT22;11585;51.450;-0.240;2022-12-05T02:37:39;7.50;99.90
22838;DHT22;11585;51.450;-0.240;2022-12-05T02:40:13;7.50;99.90
22838;DHT22;11585;51.450;-0.240;2022-12-05T02:42:47;7.50;99.90
22838;DHT22;11585;51.450;-0.240;2022-12-05T02:45:17;7.50;99.90
22838;DHT22;11585;51.450;-0.240;2022-12-05T02:47:49;7.40;99.90
22838;DHT22;11585;51.450;-0.240;2022-12-05T02:50:18;7.40;99.90
22838;DHT22;11585;51.450;-0.240;2022-12-05T02:52:47;7.50;99.90
22838;DHT22;11585;51.450;-0.240;2022-12-05T02:55:32;7.50;99.90
22838;DHT22;11585;51.450;-0.240;2022-12-05T02:58:02;7.50;99.90
22838;DHT22;11585;51.450;-0.240;2022-12-05T03:00:29;7.50;99.90
22838;DHT22;11585;51.450;-0.240;2022-12-05T03:02:58;7.50;99.90
22838;DHT22;11585;51.450;-0.240;2022-12-05T03:08:16;7.50;99.90
22838;DHT22;11585;51.450;-0.240;2022-12-05T03:10:44;7.50;99.90
22838;DHT22;11585;51.450;-0.240;2022-12-05T03:13:14;7.50;99.90
22838;DHT22;11585;51.450;-0.240;2022-12-05T03:15:46;7.50;99.90
22838;DHT22;11585;51.450;-0.240;2022-12-05T03:20:52;7.50;99.90
22838;DHT22;11585;51.450;-0.240;2022-12-05T03:23:46;7.50;99.90
22838;DHT22;11585;51.450;-0.240;2022-12-05T03:29:20;7.50;99.90
22838;DHT22;11585;51.450;-0.240;2022-12-05T03:37:41;7.50;99.90
22838;DHT22;11585;51.450;-0.240;2022-12-05T03:43:53;7.50;99.90
22838;DHT22;11585;51.450;-0.240;2022-12-05T03:49:12;7.50;99.90
22838;DHT22;11585;51.450;-0.240;2022-12-05T03:54:44;7.50;99.90
22838;DHT22;11585;51.450;-0.240;2022-12-05T03:57:16;7.50;99.90
22838;DHT22;11585;51.450;-0.240;2022-12-05T03:59:43;7.50;99.90
22838;DHT22;11585;51.450;-0.240;2022-12-05T04:02:33;7.50;99.90
22838;DHT22;11585;51.450;-0.240;2022-12-05T04:05:05;7.50;99.90
22838;DHT22;11585;51.450;-0.240;2022-12-05T04:07:33;7.50;99.90
22838;DHT22;11585;51.450;-0.240;2022-12-05T04:10:04;7.50;99.90
22838;DHT22;11585;51.450;-0.240;2022-12-05T04:12:33;7.50;99.90
22838;DHT22;11585;51.450;-0.240;2022-12-05T04:18:25;7.50;99.90
22838;DHT22;11585;51.450;-0.240;2022-12-05T04:20:53;7.50;99.90
22838;DHT22;11585;51.450;-0.240;2022-12-05T04:23:38;7.50;99.90
22838;DHT22;11585;51.450;-0.240;2022-12-05T04:26:18;7.50;99.90
22838;DHT22;11585;51.450;-0.240;2022-12-05T04:28:56;7.50;99.90
22838;DHT22;11585;51.450;-0.240;2022-12-05T04:31:32;7.70;99.90
22838;DHT22;11585;51.450;-0.240;2022-12-05T04:34:19;7.50;99.90
22838;DHT22;11585;51.450;-0.240;2022-12-05T04:36:54;7.50;99.90
22838;DHT22;11585;51.450;-0.240;2022-12-05T04:39:39;7.50;99.90
22838;DHT22;11585;51.450;-0.240;2022-12-05T04:42:17;7.50;99.90
22838;DHT22;11585;51.450;-0.240;2022-12-05T04:47:52;7.60;99.90
22838;DHT22;11585;51.450;-0.240;2022-12-05T04:50:20;7.50;99.90
22838;DHT22;11585;51.450;-0.240;2022-12-05T04:52:49;7.50;99.90
22838;DHT22;11585;51.450;-0.240;2022-12-05T04:55:21;7.60;99.90
22838;DHT22;11585;51.450;-0.240;2022-12-05T05:00:27;7.60;99.90
22838;DHT22;11585;51.450;-0.240;2022-12-05T05:03:29;7.60;99.90
22838;DHT22;11585;51.450;-0.240;2022-12-05T05:05:56;7.60;99.90
22838;DHT22;11585;51.450;-0.240;2022-12-05T05:08:24;7.60;99.90
22838;DHT22;11585;51.450;-0.240;2022-12-05T05:11:08;7.60;99.90
22838;DHT22;11585;51.450;-0.240;2022-12-05T05:13:53;7.60;99.90
22838;DHT22;11585;51.450;-0.240;2022-12-05T05:16:28;7.60;99.90
22838;DHT22;11585;51.450;-0.240;2022-12-05T05:18:54;7.60;99.90
22838;DHT22;11585;51.450;-0.240;2022-12-05T05:21:22;7.60;99.90
22838;DHT22;11585;51.450;-0.240;2022-12-05T05:23:51;7.70;99.90
22838;DHT22;11585;51.450;-0.240;2022-12-05T05:26:17;7.60;99.90
22838;DHT22;11585;51.450;-0.240;2022-12-05T05:28:44;7.60;99.90
22838;DHT22;11585;51.450;-0.240;2022-12-05T05:31:10;7.70;99.90
22838;DHT22;11585;51.450;-0.240;2022-12-05T05:33:36;7.60;99.90
22838;DHT22;11585;51.450;-0.240;2022-12-05T05:36:07;7.60;99.90
22838;DHT22;11585;51.450;-0.240;2022-12-05T05:38:37;7.60;99.90
22838;DHT22;11585;51.450;-0.240;2022-12-05T05:41:04;7.60;99.90
22838;DHT22;11585;51.450;-0.240;2022-12-05T05:46:22;7.70;99.90
22838;DHT22;11585;51.450;-0.240;2022-12-05T05:48:49;7.60;99.90
22838;DHT22;11585;51.450;-0.240;2022-12-05T05:51:17;7.70;99.90
22838;DHT22;11585;51.450;-0.240;2022-12-05T05:53:44;7.70;99.90
22838;DHT22;11585;51.450;-0.240;2022-12-05T05:56:13;7.70;99.90
22838;DHT22;11585;51.450;-0.240;2022-12-05T05:58:39;7.70;99.90
22838;DHT22;11585;51.450;-0.240;2022-12-05T06:01:11;7.70;99.90
22838;DHT22;11585;51.450;-0.240;2022-12-05T06:03:38;7.70;99.90
22838;DHT22;11585;51.450;-0.240;2022-12-05T06:06:06;7.60;99.90
22838;DHT22;11585;51.450;-0.240;2022-12-05T06:08:34;7.70;99.90
22838;DHT22;11585;51.450;-0.240;2022-12-05T06:11:09;7.70;99.90
22838;DHT22;11585;51.450;-0.240;2022-12-05T06:17:01;7.70;99.90
22838;DHT22;11585;51.450;-0.240;2022-12-05T06:19:26;7.70;99.90
22838;DHT22;11585;51.450;-0.240;2022-12-05T06:21:52;7.70;99.90
22838;DHT22;11585;51.450;-0.240;2022-12-05T06:24:38;8.40;99.90
22838;DHT22;11585;51.450;-0.240;2022-12-05T06:27:03;7.70;99.90
22838;DHT22;11585;51.450;-0.240;2022-12-05T06:29:29;7.70;99.90
22838;DHT22;11585;51.450;-0.240;2022-12-05T06:31:55;7.70;99.90
22838;DHT22;11585;51.450;-0.240;2022-12-05T06:34:23;7.80;99.90
22838;DHT22;11585;51.450;-0.240;2022-12-05T06:36:49;7.70;99.90
22838;DHT22;11585;51.450;-0.240;2022-12-05T06:39:15;7.80;99.90
22838;DHT22;11585;51.450;-0.240;2022-12-05T06:41:40;7.70;99.90
22838;DHT22;11585;51.450;-0.240;2022-12-05T06:44:08;8.00;99.90
22838;DHT22;11585;51.450;-0.240;2022-12-05T06:46:34;7.90;99.90
22838;DHT22;11585;51.450;-0.240;2022-12-05T06:49:00;7.70;99.90
22838;DHT22;11585;51.450;-0.240;2022-12-05T06:51:26;8.00;99.90
22838;DHT22;11585;51.450;-0.240;2022-12-05T06:53:52;7.80;99.90
22838;DHT22;11585;51.450;-0.240;2022-12-05T06:56:18;7.80;99.90
22838;DHT22;11585;51.450;-0.240;2022-12-05T06:58:46;7.80;99.90
22838;DHT22;11585;51.450;-0.240;2022-12-05T07:01:14;7.80;99.90
22838;DHT22;11585;51.450;-0.240;2022-12-05T07:06:49;7.80;99.90
22838;DHT22;11585;51.450;-0.240;2022-12-05T07:09:16;7.80;99.90
22838;DHT22;11585;51.450;-0.240;2022-12-05T07:11:48;7.80;99.90
22838;DHT22;11585;51.450;-0.240;2022-12-05T07:17:36;7.80;99.90
22838;DHT22;11585;51.450;-0.240;2022-12-05T07:20:04;7.90;99.90
22838;DHT22;11585;51.450;-0.240;2022-12-05T07:22:30;7.80;99.90
22838;DHT22;11585;51.450;-0.240;2022-12-05T07:25:14;8.30;99.90
22838;DHT22;11585;51.450;-0.240;2022-12-05T07:27:41;7.90;99.90
22838;DHT22;11585;51.450;-0.240;2022-12-05T07:30:07;7.90;99.90
22838;DHT22;11585;51.450;-0.240;2022-12-05T07:32:33;7.90;99.90
22838;DHT22;11585;51.450;-0.240;2022-12-05T07:34:59;7.90;99.90
22838;DHT22;11585;51.450;-0.240;2022-12-05T07:37:24;7.90;99.90
22838;DHT22;11585;51.450;-0.240;2022-12-05T07:39:51;7.90;99.90
22838;DHT22;11585;51.450;-0.240;2022-12-05T07:42:17;7.90;99.90
22838;DHT22;11585;51.450;-0.240;2022-12-05T07:44:46;8.10;99.90
22838;DHT22;11585;51.450;-0.240;2022-12-05T07:47:11;6.90;99.90
22838;DHT22;11585;51.450;-0.240;2022-12-05T07:49:37;8.00;99.90
22838;DHT22;11585;51.450;-0.240;2022-12-05T07:52:04;8.80;99.90
22838;DHT22;11585;51.450;-0.240;2022-12-05T07:54:50;8.00;99.90
22838;DHT22;11585;51.450;-0.240;2022-12-05T07:57:15;7.90;99.90
22838;DHT22;11585;51.450;-0.240;2022-12-05T07:59:41;7.90;99.90
22838;DHT22;11585;51.450;-0.240;2022-12-05T08:02:07;8.00;99.90
22838;DHT22;11585;51.450;-0.240;2022-12-05T08:04:54;7.90;99.90
22838;DHT22;11585;51.450;-0.240;2022-12-05T08:07:20;8.00;99.90
22838;DHT22;11585;51.450;-0.240;2022-12-05T08:09:45;8.00;99.90
22838;DHT22;11585;51.450;-0.240;2022-12-05T08:12:11;8.00;99.90
22838;DHT22;11585;51.450;-0.240;2022-12-05T08:14:39;7.90;99.90
22838;DHT22;11585;51.450;-0.240;2022-12-05T08:17:04;8.00;99.90
22838;DHT22;11585;51.450;-0.240;2022-12-05T08:19:30;8.00;99.90
22838;DHT22;11585;51.450;-0.240;2022-12-05T08:21:55;8.30;99.90
22838;DHT22;11585;51.450;-0.240;2022-12-05T08:24:23;8.00;99.90
22838;DHT22;11585;51.450;-0.240;2022-12-05T08:26:49;8.00;99.90
22838;DHT22;11585;51.450;-0.240;2022-12-05T08:29:18;8.00;99.90
22838;DHT22;11585;51.450;-0.240;2022-12-05T08:31:47;8.00;99.90
22838;DHT22;11585;51.450;-0.240;2022-12-05T08:34:16;8.00;99.90
22838;DHT22;11585;51.450;-0.240;2022-12-05T08:36:42;8.00;99.90
22838;DHT22;11585;51.450;-0.240;2022-12-05T08:39:11;8.00;99.90
22838;DHT22;11585;51.450;-0.240;2022-12-05T08:41:39;8.50;99.90
22838;DHT22;11585;51.450;-0.240;2022-12-05T08:47:27;8.00;99.90
22838;DHT22;11585;51.450;-0.240;2022-12-05T08:52:56;8.00;99.90
22838;DHT22;11585;51.450;-0.240;2022-12-05T08:55:41;8.10;99.90
22838;DHT22;11585;51.450;-0.240;2022-12-05T08:58:07;8.00;99.90
22838;DHT22;11585;51.450;-0.240;2022-12-05T09:00:33;8.10;99.90
22838;DHT22;11585;51.450;-0.240;2022-12-05T09:02:59;8.10;99.90
22838;DHT22;11585;51.450;-0.240;2022-12-05T09:05:43;8.60;99.90
22838;DHT22;11585;51.450;-0.240;2022-12-05T09:08:09;8.10;99.90
22838;DHT22;11585;51.450;-0.240;2022-12-05T09:10:37;8.10;99.90
22838;DHT22;11585;51.450;-0.240;2022-12-05T09:13:02;8.10;99.90
22838;DHT22;11585;51.450;-0.240;2022-12-05T09:15:29;9.00;99.90
22838;DHT22;11585;51.450;-0.240;2022-12-05T09:17:55;8.10;99.90
22838;DHT22;11585;51.450;-0.240;2022-12-05T09:20:20;9.40;99.90
22838;DHT22;11585;51.450;-0.240;2022-12-05T09:22:46;8.80;99.90
22838;DHT22;11585;51.450;-0.240;2022-12-05T09:25:11;8.10;99.90
22838;DHT22;11585;51.450;-0.240;2022-12-05T09:27:37;8.40;99.90
22838;DHT22;11585;51.450;-0.240;2022-12-05T09:30:04;8.10;99.90
22838;DHT22;11585;51.450;-0.240;2022-12-05T09:32:30;8.10;99.90
22838;DHT22;11585;51.450;-0.240;2022-12-05T09:37:44;8.20;99.90
22838;DHT22;11585;51.450;-0.240;2022-12-05T09:40:15;8.20;99.90
22838;DHT22;11585;51.450;-0.240;2022-12-05T09:48:06;8.20;99.90
22838;DHT22;11585;51.450;-0.240;2022-12-05T09:50:49;8.20;99.90
22838;DHT22;11585;51.450;-0.240;2022-12-05T10:01:30;8.20;99.90
22838;DHT22;11585;51.450;-0.240;2022-12-05T10:17:15;8.50;99.90
22838;DHT22;11585;51.450;-0.240;2022-12-05T10:19:47;8.30;99.90
22838;DHT22;11585;51.450;-0.240;2022-12-05T10:22:21;8.30;99.90
22838;DHT22;11585;51.450;-0.240;2022-12-05T10:24:52;8.30;99.90
22838;DHT22;11585;51.450;-0.240;2022-12-05T10:27:30;8.40;99.90
22838;DHT22;11585;51.450;-0.240;2022-12-05T10:30:20;8.40;99.90
22838;DHT22;11585;51.450;-0.240;2022-12-05T10:33:03;8.40;99.90
22838;DHT22;11585;51.450;-0.240;2022-12-05T10:35:37;8.40;99.90
22838;DHT22;11585;51.450;-0.240;2022-12-05T10:38:09;8.40;99.90
22838;DHT22;11585;51.450;-0.240;2022-12-05T10:40:41;8.40;99.90
22838;DHT22;11585;51.450;-0.240;2022-12-05T10:43:13;8.70;99.90
22838;DHT22;11585;51.450;-0.240;2022-12-05T10:45:43;8.90;99.90
22838;DHT22;11585;51.450;-0.240;2022-12-05T10:48:12;8.40;99.90
22838;DHT22;11585;51.450;-0.240;2022-12-05T10:50:38;8.50;99.90
22838;DHT22;11585;51.450;-0.240;2022-12-05T10:53:05;8.40;99.90
22838;DHT22;11585;51.450;-0.240;2022-12-05T10:55:50;8.40;99.90
22838;DHT22;11585;51.450;-0.240;2022-12-05T10:58:19;8.40;99.90
22838;DHT22;11585;51.450;-0.240;2022-12-05T11:00:53;8.70;99.90
22838;DHT22;11585;51.450;-0.240;2022-12-05T11:03:31;8.50;99.90
22838;DHT22;11585;51.450;-0.240;2022-12-05T11:08:41;8.50;99.90
22838;DHT22;11585;51.450;-0.240;2022-12-05T11:11:24;8.50;99.90
22838;DHT22;11585;51.450;-0.240;2022-12-05T11:17:24;8.50;99.90
22838;DHT22;11585;51.450;-0.240;2022-12-05T11:19:50;8.60;99.90
22838;DHT22;11585;51.450;-0.240;2022-12-05T11:22:16;8.50;99.90
22838;DHT22;11585;51.450;-0.240;2022-12-05T11:24:44;8.60;99.90
22838;DHT22;11585;51.450;-0.240;2022-12-05T11:30:01;8.60;99.90
22838;DHT22;11585;51.450;-0.240;2022-12-05T11:32:30;8.60;99.90
22838;DHT22;11585;51.450;-0.240;2022-12-05T11:38:20;8.60;99.90
22838;DHT22;11585;51.450;-0.240;2022-12-05T11:41:41;8.60;99.90
22838;DHT22;11585;51.450;-0.240;2022-12-05T11:52:17;8.60;99.90
22838;DHT22;11585;51.450;-0.240;2022-12-05T12:06:14;8.70;99.90
22838;DHT22;11585;51.450;-0.240;2022-12-05T12:08:54;8.70;99.90
22838;DHT22;11585;51.450;-0.240;2022-12-05T12:11:33;8.80;99.90
22838;DHT22;11585;51.450;-0.240;2022-12-05T12:14:33;8.80;99.90
22838;DHT22;11585;51.450;-0.240;2022-12-05T12:41:43;8.90;99.90
22838;DHT22;11585;51.450;-0.240;2022-12-05T12:46:54;9.00;99.90
22838;DHT22;11585;51.450;-0.240;2022-12-05T12:52:15;9.00;99.90
22838;DHT22;11585;51.450;-0.240;2022-12-05T12:57:28;9.00;99.90
22838;DHT22;11585;51.450;-0.240;2022-12-05T13:02:50;9.00;99.90
22838;DHT22;11585;51.450;-0.240;2022-12-05T13:05:37;9.10;99.90
22838;DHT22;11585;51.450;-0.240;2022-12-05T13:08:09;9.10;99.90
22838;DHT22;11585;51.450;-0.240;2022-12-05T13:10:42;9.50;99.90
22838;DHT22;11585;51.450;-0.240;2022-12-05T13:13:12;9.10;99.90
22838;DHT22;11585;51.450;-0.240;2022-12-05T13:15:46;9.50;99.90
22838;DHT22;11585;51.450;-0.240;2022-12-05T13:18:17;9.10;99.90
22838;DHT22;11585;51.450;-0.240;2022-12-05T13:20:43;9.60;99.90
22838;DHT22;11585;51.450;-0.240;2022-12-05T13:23:16;9.10;99.90
22838;DHT22;11585;51.450;-0.240;2022-12-05T13:25:43;9.20;99.90
22838;DHT22;11585;51.450;-0.240;2022-12-05T13:28:30;9.20;99.90
22838;DHT22;11585;51.450;-0.240;2022-12-05T13:30:57;9.20;99.90
22838;DHT22;11585;51.450;-0.240;2022-12-05T13:36:38;9.20;99.90
22838;DHT22;11585;51.450;-0.240;2022-12-05T13:39:23;9.20;99.90
22838;DHT22;11585;51.450;-0.240;2022-12-05T13:42:28;9.20;99.90
22838;DHT22;11585;51.450;-0.240;2022-12-05T13:50:34;9.20;99.90
22838;DHT22;11585;51.450;-0.240;2022-12-05T14:05:39;9.20;99.90
22838;DHT22;11585;51.450;-0.240;2022-12-05T14:24:49;9.30;99.90
22838;DHT22;11585;51.450;-0.240;2022-12-05T14:30:49;9.30;99.90
22838;DHT22;11585;51.450;-0.240;2022-12-05T14:33:21;9.30;99.90
22838;DHT22;11585;51.450;-0.240;2022-12-05T14:35:49;9.30;99.90
22838;DHT22;11585;51.450;-0.240;2022-12-05T14:40:51;9.30;99.90
22838;DHT22;11585;51.450;-0.240;2022-12-05T14:43:21;9.30;99.90
22838;DHT22;11585;51.450;-0.240;2022-12-05T14:50:46;9.50;99.90
22838;DHT22;11585;51.450;-0.240;2022-12-05T14:57:01;9.40;99.90
22838;DHT22;11585;51.450;-0.240;2022-12-05T14:59:32;9.40;99.90
22838;DHT22;11585;51.450;-0.240;2022-12-05T15:02:02;9.40;99.90
22838;DHT22;11585;51.450;-0.240;2022-12-05T15:07:36;9.40;99.90
22838;DHT22;11585;51.450;-0.240;2022-12-05T15:12:54;9.40;99.90
22838;DHT22;11585;51.450;-0.240;2022-12-05T15:15:59;9.40;99.90
22838;DHT22;11585;51.450;-0.240;2022-12-05T15:18:40;9.40;99.90
22838;DHT22;11585;51.450;-0.240;2022-12-05T15:21:25;9.40;99.90
22838;DHT22;11585;51.450;-0.240;2022-12-05T15:24:00;9.40;99.90
22838;DHT22;11585;51.450;-0.240;2022-12-05T15:26:37;9.40;99.90
22838;DHT22;11585;51.450;-0.240;2022-12-05T15:31:30;9.30;99.90
22838;DHT22;11585;51.450;-0.240;2022-12-05T15:38:03;9.40;99.90
22838;DHT22;11585;51.450;-0.240;2022-12-05T15:40:14;9.40;99.90
22838;DHT22;11585;51.450;-0.240;2022-12-05T15:42:51;9.40;99.90
22838;DHT22;11585;51.450;-0.240;2022-12-05T15:45:38;9.40;99.90
22838;DHT22;11585;51.450;-0.240;2022-12-05T15:50:39;9.40;99.90
22838;DHT22;11585;51.450;-0.240;2022-12-05T15:55:56;9.40;99.90
22838;DHT22;11585;51.450;-0.240;2022-12-05T15:58:27;9.40;99.90
22838;DHT22;11585;51.450;-0.240;2022-12-05T16:06:33;9.40;99.90
22838;DHT22;11585;51.450;-0.240;2022-12-05T16:09:04;9.40;99.90
22838;DHT22;11585;51.450;-0.240;2022-12-05T16:11:30;9.40;99.90
22838;DHT22;11585;51.450;-0.240;2022-12-05T16:14:00;9.40;99.90
22838;DHT22;11585;51.450;-0.240;2022-12-05T16:16:33;9.40;99.90
22838;DHT22;11585;51.450;-0.240;2022-12-05T16:19:14;9.40;99.90
22838;DHT22;11585;51.450;-0.240;2022-12-05T16:21:43;9.40;99.90
22838;DHT22;11585;51.450;-0.240;2022-12-05T16:26:40;9.40;99.90
22838;DHT22;11585;51.450;-0.240;2022-12-05T16:29:28;9.50;99.90
22838;DHT22;11585;51.450;-0.240;2022-12-05T16:31:59;9.50;99.90
22838;DHT22;11585;51.450;-0.240;2022-12-05T16:37:47;9.40;99.90
22838;DHT22;11585;51.450;-0.240;2022-12-05T16:40:20;9.40;99.90
22838;DHT22;11585;51.450;-0.240;2022-12-05T16:43:00;9.40;99.90
22838;DHT22;11585;51.450;-0.240;2022-12-05T16:45:43;9.40;99.90
22838;DHT22;11585;51.450;-0.240;2022-12-05T16:48:29;9.40;99.90
22838;DHT22;11585;51.450;-0.240;2022-12-05T16:59:46;9.40;99.90
22838;DHT22;11585;51.450;-0.240;2022-12-05T17:02:16;9.40;99.90
22838;DHT22;11585;51.450;-0.240;2022-12-05T17:07:31;9.40;99.90
22838;DHT22;11585;51.450;-0.240;2022-12-05T17:09:57;9.40;99.90
22838;DHT22;11585;51.450;-0.240;2022-12-05T17:12:23;9.40;99.90
22838;DHT22;11585;51.450;-0.240;2022-12-05T17:14:50;9.40;99.90
22838;DHT22;11585;51.450;-0.240;2022-12-05T17:17:16;9.40;99.90
22838;DHT22;11585;51.450;-0.240;2022-12-05T17:19:43;9.40;99.90
22838;DHT22;11585;51.450;-0.240;2022-12-05T17:22:10;9.40;99.90
22838;DHT22;11585;51.450;-0.240;2022-12-05T17:24:38;9.40;99.90
22838;DHT22;11585;51.450;-0.240;2022-12-05T17:27:11;9.40;99.90
22838;DHT22;11585;51.450;-0.240;2022-12-05T17:29:37;9.40;99.90
22838;DHT22;11585;51.450;-0.240;2022-12-05T17:32:03;9.40;99.90
22838;DHT22;11585;51.450;-0.240;2022-12-05T17:37:34;9.40;99.90
22838;DHT22;11585;51.450;-0.240;2022-12-05T17:40:00;9.40;99.90
22838;DHT22;11585;51.450;-0.240;2022-12-05T17:42:25;9.40;99.90
22838;DHT22;11585;51.450;-0.240;2022-12-05T17:47:40;9.40;99.90
22838;DHT22;11585;51.450;-0.240;2022-12-05T17:50:06;9.40;99.90
22838;DHT22;11585;51.450;-0.240;2022-12-05T17:52:32;9.40;99.90
22838;DHT22;11585;51.450;-0.240;2022-12-05T17:55:20;9.40;99.90
22838;DHT22;11585;51.450;-0.240;2022-12-05T17:57:46;9.40;99.90
22838;DHT22;11585;51.450;-0.240;2022-12-05T18:00:14;9.40;99.90
22838;DHT22;11585;51.450;-0.240;2022-12-05T18:02:41;9.40;99.90
22838;DHT22;11585;51.450;-0.240;2022-12-05T18:08:16;9.40;99.90
22838;DHT22;11585;51.450;-0.240;2022-12-05T18:10:43;9.40;99.90
22838;DHT22;11585;51.450;-0.240;2022-12-05T18:13:09;9.40;99.90
22838;DHT22;11585;51.450;-0.240;2022-12-05T18:18:39;9.40;99.90
22838;DHT22;11585;51.450;-0.240;2022-12-05T18:21:09;9.40;99.90
22838;DHT22;11585;51.450;-0.240;2022-12-05T18:26:57;9.40;99.90
22838;DHT22;11585;51.450;-0.240;2022-12-05T18:29:23;9.40;99.90
22838;DHT22;11585;51.450;-0.240;2022-12-05T18:31:49;9.40;99.90
22838;DHT22;11585;51.450;-0.240;2022-12-05T18:37:24;9.40;99.90
22838;DHT22;11585;51.450;-0.240;2022-12-05T18:39:52;9.40;99.90
22838;DHT22;11585;51.450;-0.240;2022-12-05T18:42:18;9.40;99.90
22838;DHT22;11585;51.450;-0.240;2022-12-05T18:47:32;9.40;99.90
22838;DHT22;11585;51.450;-0.240;2022-12-05T18:49:58;9.40;99.90
22838;DHT22;11585;51.450;-0.240;2022-12-05T18:52:25;9.40;99.90
22838;DHT22;11585;51.450;-0.240;2022-12-05T18:57:56;9.40;99.90
22838;DHT22;11585;51.450;-0.240;2022-12-05T19:00:23;9.40;99.90
22838;DHT22;11585;51.450;-0.240;2022-12-05T19:02:49;9.40;99.90
22838;DHT22;11585;51.450;-0.240;2022-12-05T19:05:35;9.40;99.90
22838;DHT22;11585;51.450;-0.240;2022-12-05T19:08:01;9.40;99.90
22838;DHT22;11585;51.450;-0.240;2022-12-05T19:10:27;9.40;99.90
22838;DHT22;11585;51.450;-0.240;2022-12-05T19:12:52;9.40;99.90
22838;DHT22;11585;51.450;-0.240;2022-12-05T19:15:18;9.50;99.90
22838;DHT22;11585;51.450;-0.240;2022-12-05T19:17:43;9.40;99.90
22838;DHT22;11585;51.450;-0.240;2022-12-05T19:20:09;9.40;99.90
22838;DHT22;11585;51.450;-0.240;2022-12-05T19:22:36;9.40;99.90
22838;DHT22;11585;51.450;-0.240;2022-12-05T19:28:08;9.40;99.90
22838;DHT22;11585;51.450;-0.240;2022-12-05T19:30:34;9.40;99.90
22838;DHT22;11585;51.450;-0.240;2022-12-05T19:33:00;9.40;99.90
22838;DHT22;11585;51.450;-0.240;2022-12-05T19:38:33;9.40;99.90
22838;DHT22;11585;51.450;-0.240;2022-12-05T19:41:00;9.30;99.90
22838;DHT22;11585;51.450;-0.240;2022-12-05T19:43:27;9.30;99.90
22838;DHT22;11585;51.450;-0.240;2022-12-05T19:45:54;9.30;99.90
22838;DHT22;11585;51.450;-0.240;2022-12-05T19:48:20;9.60;99.90
22838;DHT22;11585;51.450;-0.240;2022-12-05T19:50:52;9.30;99.90
22838;DHT22;11585;51.450;-0.240;2022-12-05T19:53:19;9.30;99.90
22838;DHT22;11585;51.450;-0.240;2022-12-05T19:55:44;9.30;99.90
22838;DHT22;11585;51.450;-0.240;2022-12-05T19:58:10;9.30;99.90
22838;DHT22;11585;51.450;-0.240;2022-12-05T20:00:35;9.30;99.90
22838;DHT22;11585;51.450;-0.240;2022-12-05T20:03:01;9.30;99.90
22838;DHT22;11585;51.450;-0.240;2022-12-05T20:05:56;9.40;99.90
22838;DHT22;11585;51.450;-0.240;2022-12-05T20:08:22;9.30;99.90
22838;DHT22;11585;51.450;-0.240;2022-12-05T20:10:47;9.30;99.90
22838;DHT22;11585;51.450;-0.240;2022-12-05T20:13:19;9.30;99.90
22838;DHT22;11585;51.450;-0.240;2022-12-05T20:15:45;9.30;99.90
22838;DHT22;11585;51.450;-0.240;2022-12-05T20:18:12;9.20;99.90
22838;DHT22;11585;51.450;-0.240;2022-12-05T20:20:38;9.20;99.90
22838;DHT22;11585;51.450;-0.240;2022-12-05T20:23:03;9.20;99.90
22838;DHT22;11585;51.450;-0.240;2022-12-05T20:28:51;9.20;99.90
22838;DHT22;11585;51.450;-0.240;2022-12-05T20:31:22;9.20;99.90
22838;DHT22;11585;51.450;-0.240;2022-12-05T20:34:09;9.20;99.90
22838;DHT22;11585;51.450;-0.240;2022-12-05T20:36:36;9.20;99.90
22838;DHT22;11585;51.450;-0.240;2022-12-05T20:39:04;9.20;99.90
22838;DHT22;11585;51.450;-0.240;2022-12-05T20:41:30;9.20;99.90
22838;DHT22;11585;51.450;-0.240;2022-12-05T20:44:03;9.10;99.90
22838;DHT22;11585;51.450;-0.240;2022-12-05T20:46:29;9.10;99.90
22838;DHT22;11585;51.450;-0.240;2022-12-05T20:48:59;9.10;99.90
22838;DHT22;11585;51.450;-0.240;2022-12-05T20:51:30;9.10;99.90
22838;DHT22;11585;51.450;-0.240;2022-12-05T20:53:58;9.10;99.90
22838;DHT22;11585;51.450;-0.240;2022-12-05T20:56:26;9.10;99.90
22838;DHT22;11585;51.450;-0.240;2022-12-05T20:58:58;9.40;99.90